createdAt,value
2022-10-26T00:01:16.907Z,1.60
2022-10-26T00:03:45.515Z,1.04
2022-10-26T00:06:24.970Z,1.71
2022-10-26T00:08:52.890Z,1.56
2022-10-26T00:11:20.264Z,1.48
2022-10-26T00:13:48.263Z,1.09
2022-10-26T00:16:27.167Z,1.65
2022-10-26T00:18:54.749Z,1.53
2022-10-26T00:21:21.903Z,1.52
2022-10-26T00:23:48.946Z,1.60
2022-10-26T00:26:16.110Z,1.63
2022-10-26T00:28:43.196Z,1.58
2022-10-26T00:31:15.594Z,1.45
2022-10-26T00:33:42.814Z,1.61
2022-10-26T00:36:10.746Z,1.57
2022-10-26T00:38:38.272Z,1.54
2022-10-26T00:41:05.753Z,1.55
2022-10-26T00:43:34.646Z,1.53
2022-10-26T00:46:05.185Z,1.45
2022-10-26T00:48:36.293Z,1.29
2022-10-26T00:51:08.579Z,1.25
2022-10-26T00:53:36.329Z,1.27
2022-10-26T00:56:03.981Z,1.22
2022-10-26T00:58:32.586Z,1.07
2022-10-26T01:00:59.614Z,0.96
2022-10-26T01:03:28.362Z,1.08
2022-10-26T01:05:57.994Z,1.13
2022-10-26T01:08:26.406Z,1.00
2022-10-26T01:10:53.938Z,0.76
2022-10-26T01:13:21.259Z,1.06
2022-10-26T01:16:03.910Z,1.10
2022-10-26T01:19:13.135Z,1.14
2022-10-26T01:21:55.346Z,0.90
2022-10-26T01:24:43.897Z,1.04
2022-10-26T01:27:20.106Z,1.00
2022-10-26T01:30:25.426Z,1.13
2022-10-26T01:33:22.524Z,0.97
2022-10-26T01:36:19.447Z,1.09
2022-10-26T01:39:02.084Z,1.11
2022-10-26T01:41:44.949Z,0.75
2022-10-26T01:44:19.842Z,1.16
2022-10-26T01:46:50.756Z,1.13
2022-10-26T01:49:22.637Z,0.94
2022-10-26T01:51:50.654Z,0.63
2022-10-26T01:54:17.853Z,1.15
2022-10-26T01:56:50.919Z,1.36
2022-10-26T01:59:42.535Z,1.41
2022-10-26T02:02:12.617Z,1.11
2022-10-26T02:04:45.681Z,1.26
2022-10-26T02:07:25.003Z,1.45
2022-10-26T02:10:30.744Z,1.38
2022-10-26T02:13:24.086Z,1.12
2022-10-26T02:16:07.125Z,1.07
2022-10-26T02:18:52.063Z,1.45
2022-10-26T02:21:28.340Z,1.38
2022-10-26T02:23:58.589Z,1.15
2022-10-26T02:26:28.870Z,1.04
2022-10-26T02:29:01.140Z,0.93
2022-10-26T02:31:30.101Z,0.82
2022-10-26T02:34:02.155Z,1.11
2022-10-26T02:36:33.236Z,0.93
2022-10-26T02:39:03.649Z,1.02
2022-10-26T02:41:31.737Z,0.86
2022-10-26T02:44:11.637Z,1.08
2022-10-26T02:46:39.191Z,0.87
2022-10-26T02:49:06.456Z,1.04
2022-10-26T02:52:05.125Z,1.18
2022-10-26T02:54:54.191Z,1.21
2022-10-26T02:57:29.531Z,1.19
2022-10-26T02:59:57.597Z,1.26
2022-10-26T03:02:25.072Z,1.14
2022-10-26T03:04:53.969Z,0.98
2022-10-26T03:07:23.286Z,1.26
2022-10-26T03:09:50.728Z,0.74
2022-10-26T03:12:18.550Z,1.44
2022-10-26T03:14:45.709Z,1.26
2022-10-26T03:17:12.700Z,0.82
2022-10-26T03:19:39.778Z,1.37
2022-10-26T03:22:06.947Z,1.34
2022-10-26T03:24:33.901Z,1.36
2022-10-26T03:27:02.305Z,1.49
2022-10-26T03:29:29.711Z,0.95
2022-10-26T03:31:56.811Z,1.21
2022-10-26T03:34:23.814Z,1.16
2022-10-26T03:36:50.835Z,0.93
2022-10-26T03:39:17.916Z,0.98
2022-10-26T03:41:45.055Z,1.30
2022-10-26T03:44:12.213Z,1.46
2022-10-26T03:46:39.228Z,1.21
2022-10-26T03:49:06.265Z,1.50
2022-10-26T03:51:33.378Z,1.47
2022-10-26T03:54:00.374Z,1.49
2022-10-26T03:56:27.489Z,0.82
2022-10-26T03:58:54.497Z,1.33
2022-10-26T04:01:21.532Z,1.22
2022-10-26T04:03:48.698Z,1.57
2022-10-26T04:06:15.896Z,1.56
2022-10-26T04:08:42.880Z,1.49
2022-10-26T04:11:09.930Z,1.58
2022-10-26T04:13:37.128Z,1.54
2022-10-26T04:16:04.411Z,1.74
2022-10-26T04:18:31.390Z,1.68
2022-10-26T04:21:02.098Z,1.81
2022-10-26T04:23:29.205Z,1.70
2022-10-26T04:25:56.308Z,1.85
2022-10-26T04:28:23.360Z,1.89
2022-10-26T04:30:50.402Z,2.00
2022-10-26T04:33:17.528Z,1.18
2022-10-26T04:35:45.872Z,2.00
2022-10-26T04:38:12.954Z,1.81
2022-10-26T04:40:40.072Z,1.95
2022-10-26T04:43:07.228Z,2.04
2022-10-26T04:45:34.501Z,2.00
2022-10-26T04:48:06.597Z,2.13
2022-10-26T04:50:34.225Z,1.96
2022-10-26T04:53:05.310Z,2.16
2022-10-26T04:55:32.606Z,1.82
2022-10-26T04:58:01.319Z,2.15
2022-10-26T05:00:31.175Z,2.05
2022-10-26T05:03:02.602Z,1.89
2022-10-26T05:05:31.611Z,1.87
2022-10-26T05:07:59.020Z,2.19
2022-10-26T05:10:27.021Z,1.98
2022-10-26T05:12:55.565Z,2.38
2022-10-26T05:15:23.348Z,2.49
2022-10-26T05:18:03.027Z,2.44
2022-10-26T05:20:31.731Z,2.41
2022-10-26T05:23:03.722Z,2.34
2022-10-26T05:25:37.740Z,1.95
2022-10-26T05:28:13.415Z,2.23
2022-10-26T05:30:42.143Z,2.37
2022-10-26T05:33:10.982Z,2.21
2022-10-26T05:35:38.818Z,2.34
2022-10-26T05:38:15.092Z,2.23
2022-10-26T05:40:49.541Z,2.51
2022-10-26T05:43:16.804Z,2.17
2022-10-26T05:45:43.919Z,1.32
2022-10-26T05:48:10.927Z,2.11
2022-10-26T05:50:37.997Z,2.32
2022-10-26T05:53:05.273Z,2.51
2022-10-26T05:55:32.781Z,2.47
2022-10-26T05:58:00.088Z,2.76
2022-10-26T06:00:29.488Z,2.84
2022-10-26T06:03:27.391Z,2.89
2022-10-26T06:05:57.045Z,2.83
2022-10-26T06:08:26.542Z,2.82
2022-10-26T06:10:54.745Z,2.32
2022-10-26T06:13:22.935Z,2.71
2022-10-26T06:16:08.660Z,2.32
2022-10-26T06:19:02.036Z,3.07
2022-10-26T06:21:46.520Z,3.11
2022-10-26T06:24:48.428Z,3.24
2022-10-26T06:27:37.172Z,3.51
2022-10-26T06:30:12.603Z,3.66
2022-10-26T06:32:41.097Z,3.76
2022-10-26T06:35:26.920Z,3.82
2022-10-26T06:37:56.433Z,3.65
2022-10-26T06:40:24.497Z,3.64
2022-10-26T06:42:51.761Z,3.49
2022-10-26T06:45:19.300Z,3.68
2022-10-26T06:47:51.531Z,3.40
2022-10-26T06:50:54.645Z,3.71
2022-10-26T06:53:44.104Z,4.28
2022-10-26T06:56:13.748Z,3.43
2022-10-26T06:58:42.046Z,4.01
2022-10-26T07:01:12.325Z,3.44
2022-10-26T07:03:39.439Z,3.96
2022-10-26T07:06:06.790Z,3.95
2022-10-26T07:08:34.426Z,4.01
2022-10-26T07:11:01.688Z,4.41
2022-10-26T07:13:28.794Z,4.72
2022-10-26T07:15:55.940Z,4.84
2022-10-26T07:18:22.901Z,4.84
2022-10-26T07:20:49.975Z,4.87
2022-10-26T07:23:17.185Z,4.76
2022-10-26T07:25:44.274Z,5.69
2022-10-26T07:28:11.764Z,5.85
2022-10-26T07:30:40.055Z,5.83
2022-10-26T07:33:13.192Z,5.80
2022-10-26T07:35:40.885Z,5.63
2022-10-26T07:38:08.414Z,5.94
2022-10-26T07:40:37.207Z,6.30
2022-10-26T07:43:04.398Z,6.36
2022-10-26T07:45:33.848Z,6.60
2022-10-26T07:48:01.034Z,6.31
2022-10-26T07:50:28.066Z,4.96
2022-10-26T07:52:54.994Z,6.95
2022-10-26T07:55:22.057Z,6.54
2022-10-26T07:57:53.810Z,6.66
2022-10-26T08:00:22.149Z,6.84
2022-10-26T08:02:49.195Z,6.99
2022-10-26T08:05:16.254Z,6.82
2022-10-26T08:07:44.933Z,7.24
2022-10-26T08:10:13.134Z,7.27
2022-10-26T08:12:40.879Z,6.78
2022-10-26T08:15:08.508Z,7.30
2022-10-26T08:17:35.777Z,7.04
2022-10-26T08:20:02.991Z,6.51
2022-10-26T08:22:31.016Z,7.04
2022-10-26T08:24:58.351Z,6.84
2022-10-26T08:27:25.901Z,8.14
2022-10-26T08:29:53.011Z,8.55
2022-10-26T08:32:20.128Z,8.58
2022-10-26T08:34:47.186Z,8.98
2022-10-26T08:37:14.306Z,8.50
2022-10-26T08:39:41.341Z,9.20
2022-10-26T08:42:19.523Z,8.67
2022-10-26T08:44:48.827Z,8.82
2022-10-26T08:47:25.604Z,8.41
2022-10-26T08:50:04.875Z,8.74
2022-10-26T08:52:38.101Z,8.60
2022-10-26T08:55:13.945Z,7.76
2022-10-26T08:57:42.810Z,6.51
2022-10-26T09:00:15.498Z,7.79
2022-10-26T09:02:42.593Z,7.54
2022-10-26T09:05:18.336Z,7.73
2022-10-26T09:08:13.093Z,8.57
2022-10-26T09:10:58.699Z,9.03
2022-10-26T09:13:44.886Z,8.55
2022-10-26T09:16:28.357Z,8.66
2022-10-26T09:19:04.407Z,8.14
2022-10-26T09:21:51.300Z,8.67
2022-10-26T09:24:39.208Z,8.83
2022-10-26T09:27:20.864Z,8.84
2022-10-26T09:29:49.547Z,9.78
2022-10-26T09:32:20.715Z,10.36
2022-10-26T09:34:58.762Z,10.00
2022-10-26T09:37:32.858Z,10.15
2022-10-26T09:40:13.518Z,9.68
2022-10-26T09:42:45.819Z,10.19
2022-10-26T09:45:31.496Z,10.25
2022-10-26T09:48:12.549Z,9.53
2022-10-26T09:50:43.949Z,10.13
2022-10-26T09:53:11.039Z,10.10
2022-10-26T09:55:44.410Z,9.58
2022-10-26T09:58:20.576Z,9.23
2022-10-26T10:00:52.223Z,9.12
2022-10-26T10:03:24.921Z,9.06
2022-10-26T10:05:52.939Z,8.61
2022-10-26T10:08:25.280Z,8.36
2022-10-26T10:11:02.257Z,9.21
2022-10-26T10:13:37.524Z,8.98
2022-10-26T10:16:12.513Z,8.84
2022-10-26T10:18:41.284Z,8.33
2022-10-26T10:21:10.301Z,8.63
2022-10-26T10:23:52.755Z,8.46
2022-10-26T10:26:19.884Z,7.60
2022-10-26T10:29:01.207Z,7.82
2022-10-26T10:31:33.705Z,8.49
2022-10-26T10:34:00.652Z,8.21
2022-10-26T10:36:30.515Z,7.95
2022-10-26T10:38:57.466Z,7.83
2022-10-26T10:41:31.202Z,7.57
2022-10-26T10:44:21.250Z,7.69
2022-10-26T10:46:48.619Z,7.82
2022-10-26T10:49:27.688Z,7.81
2022-10-26T10:51:56.123Z,7.41
2022-10-26T10:54:39.202Z,7.26
2022-10-26T10:57:43.303Z,7.72
2022-10-26T11:00:12.329Z,7.56
2022-10-26T11:03:16.932Z,6.49
2022-10-26T11:05:52.512Z,6.94
2022-10-26T11:08:39.656Z,7.65
2022-10-26T11:11:12.386Z,7.61
2022-10-26T11:14:14.105Z,7.55
2022-10-26T11:16:46.542Z,6.50
2022-10-26T11:19:19.535Z,6.84
2022-10-26T11:21:52.295Z,6.98
2022-10-26T11:24:36.806Z,7.15
2022-10-26T11:27:19.053Z,6.91
2022-10-26T11:29:58.730Z,6.48
2022-10-26T11:32:25.712Z,6.92
2022-10-26T11:35:03.141Z,7.10
2022-10-26T11:37:37.717Z,6.73
2022-10-26T11:40:15.273Z,6.92
2022-10-26T11:42:49.047Z,7.06
2022-10-26T11:45:23.551Z,6.89
2022-10-26T11:48:01.176Z,7.00
2022-10-26T11:50:34.981Z,6.28
2022-10-26T11:53:21.243Z,6.92
2022-10-26T11:55:52.612Z,6.53
2022-10-26T11:58:24.163Z,6.41
2022-10-26T12:00:57.890Z,6.65
2022-10-26T12:03:32.906Z,6.89
2022-10-26T12:05:59.962Z,6.86
2022-10-26T12:08:51.289Z,6.55
2022-10-26T12:11:36.659Z,5.71
2022-10-26T12:14:09.412Z,6.58
2022-10-26T12:17:14.890Z,6.52
2022-10-26T12:20:06.092Z,6.10
2022-10-26T12:22:37.158Z,6.75
2022-10-26T12:25:16.040Z,6.70
2022-10-26T12:27:42.975Z,6.46
2022-10-26T12:30:37.170Z,6.75
2022-10-26T12:33:30.584Z,6.75
2022-10-26T12:35:57.800Z,6.54
2022-10-26T12:38:25.620Z,6.04
2022-10-26T12:41:10.770Z,6.64
2022-10-26T12:43:41.679Z,6.31
2022-10-26T12:46:14.423Z,6.41
2022-10-26T12:48:46.555Z,6.35
2022-10-26T12:51:20.076Z,6.33
2022-10-26T12:54:05.677Z,6.41
2022-10-26T12:56:55.391Z,6.22
2022-10-26T12:59:48.745Z,6.19
2022-10-26T13:02:37.059Z,5.05
2022-10-26T13:05:14.383Z,6.29
2022-10-26T13:07:42.185Z,6.01
2022-10-26T13:10:12.227Z,6.28
2022-10-26T13:12:48.775Z,6.32
2022-10-26T13:15:33.602Z,6.28
2022-10-26T13:18:18.732Z,5.89
2022-10-26T13:21:03.896Z,6.06
2022-10-26T13:23:34.998Z,5.96
2022-10-26T13:26:20.149Z,6.17
2022-10-26T13:28:55.675Z,6.07
2022-10-26T13:31:28.789Z,6.21
2022-10-26T13:34:09.987Z,6.22
2022-10-26T13:36:43.220Z,5.28
2022-10-26T13:39:35.911Z,6.21
2022-10-26T13:42:03.732Z,6.05
2022-10-26T13:44:48.316Z,5.76
2022-10-26T13:47:51.899Z,5.63
2022-10-26T13:50:41.420Z,5.51
2022-10-26T13:53:16.742Z,5.67
2022-10-26T13:55:53.133Z,5.34
2022-10-26T13:58:40.864Z,5.31
2022-10-26T14:01:11.820Z,5.55
2022-10-26T14:03:41.114Z,5.30
2022-10-26T14:06:26.668Z,5.25
2022-10-26T14:08:58.279Z,5.00
2022-10-26T14:11:36.056Z,5.37
2022-10-26T14:14:04.571Z,5.35
2022-10-26T14:16:33.852Z,5.36
2022-10-26T14:19:03.877Z,5.25
2022-10-26T14:21:30.897Z,4.64
2022-10-26T14:24:03.607Z,5.07
2022-10-26T14:26:39.426Z,4.49
2022-10-26T14:29:18.407Z,5.03
2022-10-26T14:31:45.462Z,5.33
2022-10-26T14:34:13.176Z,4.73
2022-10-26T14:36:59.246Z,3.62
2022-10-26T14:39:33.767Z,4.89
2022-10-26T14:42:06.266Z,4.96
2022-10-26T14:44:37.454Z,4.85
2022-10-26T14:47:04.545Z,4.41
2022-10-26T14:49:31.501Z,4.39
2022-10-26T14:52:00.145Z,5.11
2022-10-26T14:54:28.984Z,4.90
2022-10-26T14:56:57.003Z,4.67
2022-10-26T14:59:31.888Z,4.86
2022-10-26T15:02:00.032Z,4.63
2022-10-26T15:04:28.765Z,5.02
2022-10-26T15:07:18.323Z,5.02
2022-10-26T15:09:49.986Z,5.02
2022-10-26T15:12:36.392Z,5.18
2022-10-26T15:15:15.502Z,5.19
2022-10-26T15:17:49.410Z,5.08
2022-10-26T15:20:20.279Z,4.97
2022-10-26T15:22:54.156Z,4.99
2022-10-26T15:25:24.570Z,4.61
2022-10-26T15:27:52.126Z,4.95
2022-10-26T15:30:23.691Z,5.17
2022-10-26T15:32:52.877Z,4.82
2022-10-26T15:35:20.066Z,5.07
2022-10-26T15:37:48.407Z,5.01
2022-10-26T15:40:15.818Z,5.11
2022-10-26T15:42:45.595Z,5.16
2022-10-26T15:45:28.148Z,4.88
2022-10-26T15:47:57.725Z,4.73
2022-10-26T15:50:27.953Z,5.07
2022-10-26T15:53:03.046Z,4.20
2022-10-26T15:55:30.781Z,5.05
2022-10-26T15:57:57.935Z,4.97
2022-10-26T16:00:24.987Z,4.89
2022-10-26T16:02:52.821Z,4.63
2022-10-26T16:05:19.807Z,4.77
2022-10-26T16:07:48.728Z,3.87
2022-10-26T16:10:23.624Z,4.31
2022-10-26T16:12:51.625Z,4.78
2022-10-26T16:15:24.537Z,4.70
2022-10-26T16:17:52.390Z,4.75
2022-10-26T16:20:27.395Z,4.63
2022-10-26T16:22:55.102Z,4.88
2022-10-26T16:25:26.046Z,4.61
2022-10-26T16:27:55.200Z,4.80
2022-10-26T16:30:25.811Z,4.24
2022-10-26T16:32:56.071Z,4.65
2022-10-26T16:35:23.395Z,4.63
2022-10-26T16:37:50.589Z,4.73
2022-10-26T16:40:17.572Z,4.44
2022-10-26T16:42:44.803Z,4.63
2022-10-26T16:45:12.472Z,4.14
2022-10-26T16:47:40.298Z,4.61
2022-10-26T16:50:12.216Z,4.38
2022-10-26T16:52:39.796Z,4.64
2022-10-26T16:55:09.316Z,4.53
2022-10-26T16:57:37.472Z,4.06
2022-10-26T17:00:06.642Z,4.46
2022-10-26T17:02:33.878Z,4.24
2022-10-26T17:05:04.235Z,4.51
2022-10-26T17:07:34.484Z,4.55
2022-10-26T17:10:01.794Z,4.39
2022-10-26T17:12:30.738Z,4.34
2022-10-26T17:14:59.074Z,4.44
2022-10-26T17:17:26.679Z,4.49
2022-10-26T17:19:54.351Z,4.53
2022-10-26T17:22:21.310Z,3.75
2022-10-26T17:24:48.306Z,4.52
2022-10-26T17:27:17.063Z,4.11
2022-10-26T17:29:44.055Z,4.41
2022-10-26T17:32:11.030Z,3.77
2022-10-26T17:34:38.042Z,4.23
2022-10-26T17:37:05.136Z,4.39
2022-10-26T17:39:32.092Z,4.32
2022-10-26T17:41:59.114Z,4.37
2022-10-26T17:44:26.193Z,4.19
2022-10-26T17:46:53.182Z,4.20
2022-10-26T17:49:23.564Z,4.11
2022-10-26T17:51:53.519Z,4.17
2022-10-26T17:54:20.870Z,4.17
2022-10-26T17:56:48.006Z,3.34
2022-10-26T17:59:14.978Z,3.34
2022-10-26T18:01:43.570Z,4.23
2022-10-26T18:04:10.954Z,4.16
2022-10-26T18:06:38.113Z,4.26
2022-10-26T18:09:05.061Z,4.28
2022-10-26T18:14:04.087Z,4.15
2022-10-26T18:16:31.292Z,3.49
2022-10-26T18:19:04.488Z,4.16
2022-10-26T18:21:34.037Z,4.04
2022-10-26T18:24:01.006Z,3.97
2022-10-26T18:26:29.328Z,4.13
2022-10-26T18:29:02.502Z,4.09
2022-10-26T18:31:32.029Z,3.84
2022-10-26T18:34:01.593Z,3.31
2022-10-26T18:36:29.760Z,3.93
2022-10-26T18:38:57.229Z,4.12
2022-10-26T18:41:25.668Z,3.80
2022-10-26T18:43:55.157Z,4.08
2022-10-26T18:46:28.466Z,4.13
2022-10-26T18:48:56.588Z,4.07
2022-10-26T18:51:28.804Z,4.00
2022-10-26T18:53:56.644Z,3.94
2022-10-26T18:56:25.093Z,3.88
2022-10-26T18:58:54.196Z,4.14
2022-10-26T19:01:26.688Z,4.11
2022-10-26T19:03:55.766Z,4.13
2022-10-26T19:06:28.704Z,3.46
2022-10-26T19:08:56.708Z,3.88
2022-10-26T19:11:27.030Z,3.89
2022-10-26T19:13:54.279Z,3.99
2022-10-26T19:16:44.484Z,4.06
2022-10-26T19:19:12.923Z,3.86
2022-10-26T19:21:39.930Z,3.98
2022-10-26T19:24:12.526Z,4.07
2022-10-26T19:26:43.145Z,3.78
2022-10-26T19:29:15.582Z,2.86
2022-10-26T19:31:45.022Z,3.80
2022-10-26T19:34:14.028Z,3.79
2022-10-26T19:36:45.092Z,3.82
2022-10-26T19:39:17.203Z,3.21
2022-10-26T19:41:46.447Z,3.71
2022-10-26T19:44:15.075Z,3.89
2022-10-26T19:46:44.665Z,3.69
2022-10-26T19:49:13.269Z,4.09
2022-10-26T19:51:40.811Z,4.17
2022-10-26T19:54:07.941Z,3.62
2022-10-26T19:56:36.788Z,3.65
2022-10-26T19:59:05.424Z,3.73
2022-10-26T20:01:34.252Z,3.91
2022-10-26T20:04:02.881Z,3.72
2022-10-26T20:06:31.161Z,2.53
2022-10-26T20:08:59.178Z,4.18
2022-10-26T20:11:26.426Z,4.08
2022-10-26T20:13:55.681Z,3.40
2022-10-26T20:16:22.912Z,3.37
2022-10-26T20:18:49.965Z,3.22
2022-10-26T20:21:17.976Z,2.87
2022-10-26T20:23:45.432Z,4.10
2022-10-26T20:26:19.394Z,3.88
2022-10-26T20:28:51.120Z,3.80
2022-10-26T20:31:20.016Z,4.08
2022-10-26T20:33:52.516Z,3.79
2022-10-26T20:36:20.264Z,3.28
2022-10-26T20:38:47.826Z,3.76
2022-10-26T20:41:15.459Z,3.96
2022-10-26T20:43:42.952Z,3.10
2022-10-26T20:46:11.706Z,3.38
2022-10-26T20:48:39.147Z,3.98
2022-10-26T20:51:26.697Z,3.45
2022-10-26T20:54:05.533Z,4.21
2022-10-26T20:56:34.671Z,3.21
2022-10-26T20:59:04.309Z,3.20
2022-10-26T21:01:35.460Z,4.32
2022-10-26T21:04:04.244Z,3.65
2022-10-26T21:06:40.312Z,3.26
2022-10-26T21:09:09.207Z,2.78
2022-10-26T21:11:36.611Z,2.80
2022-10-26T21:14:05.547Z,3.96
2022-10-26T21:16:33.115Z,3.66
2022-10-26T21:19:00.629Z,2.37
2022-10-26T21:21:28.016Z,4.22
2022-10-26T21:23:58.065Z,3.82
2022-10-26T21:26:25.233Z,4.02
2022-10-26T21:28:52.431Z,3.84
2022-10-26T21:31:21.458Z,4.25
2022-10-26T21:33:49.070Z,3.19
2022-10-26T21:36:17.035Z,3.06
2022-10-26T21:38:46.113Z,3.49
2022-10-26T21:41:18.232Z,2.93
2022-10-26T21:43:48.092Z,3.41
2022-10-26T21:46:17.155Z,2.87
2022-10-26T21:48:45.529Z,3.72
2022-10-26T21:51:19.276Z,3.73
2022-10-26T21:53:48.238Z,3.37
2022-10-26T21:56:21.349Z,3.65
2022-10-26T21:58:49.082Z,4.15
2022-10-26T22:01:19.147Z,3.90
2022-10-26T22:03:47.205Z,4.01
2022-10-26T22:08:50.057Z,3.81
2022-10-26T22:11:23.389Z,3.72
2022-10-26T22:13:51.891Z,4.32
2022-10-26T22:16:25.392Z,3.91
2022-10-26T22:18:54.976Z,4.31
2022-10-26T22:21:26.241Z,4.28
2022-10-26T22:23:53.826Z,3.72
2022-10-26T22:26:25.011Z,3.55
2022-10-26T22:28:58.027Z,3.35
2022-10-26T22:31:33.270Z,4.13
2022-10-26T22:34:07.925Z,4.05
2022-10-26T22:36:36.199Z,2.72
2022-10-26T22:39:04.328Z,3.73
2022-10-26T22:41:31.843Z,4.04
2022-10-26T22:43:59.282Z,4.09
2022-10-26T22:46:28.320Z,4.30
2022-10-26T22:48:57.386Z,3.93
2022-10-26T22:51:26.115Z,3.10
2022-10-26T22:53:55.518Z,4.15
2022-10-26T22:56:24.045Z,3.66
2022-10-26T22:58:53.612Z,3.82
2022-10-26T23:01:26.997Z,4.22
2022-10-26T23:03:57.753Z,3.51
2022-10-26T23:06:27.362Z,3.53
2022-10-26T23:08:54.783Z,4.26
2022-10-26T23:11:23.448Z,3.38
2022-10-26T23:13:55.252Z,4.26
2022-10-26T23:16:22.578Z,4.06
2022-10-26T23:18:50.058Z,4.08
2022-10-26T23:21:17.995Z,2.38
2022-10-26T23:23:45.427Z,4.01
2022-10-26T23:26:17.844Z,3.74
2022-10-26T23:28:45.839Z,4.28
2022-10-26T23:31:25.904Z,4.14
2022-10-26T23:33:55.290Z,3.94
2022-10-26T23:36:23.169Z,4.05
2022-10-26T23:38:50.497Z,3.96
2022-10-26T23:41:17.859Z,3.09
2022-10-26T23:43:45.057Z,2.66
2022-10-26T23:46:12.302Z,3.87
2022-10-26T23:48:39.440Z,3.29
2022-10-26T23:51:06.642Z,3.04
2022-10-26T23:53:34.017Z,3.88
2022-10-26T23:56:02.086Z,3.64
2022-10-26T23:58:29.304Z,3.79
